Time,TemperatureF,DewpointF,PressureIn,WindDirection,WindDirectionDegrees,WindSpeedMPH,WindSpeedGustMPH,Humidity,HourlyPrecipIn,Conditions,Clouds,dailyrainin,SoftwareType,DateUTC
2013-04-21 00:01:00,29.7,26.6,30.49,NW,312,0.0,0.0,88,0.00,,,0.00,meteohub,2013-04-21 04:01:00,
2013-04-21 00:02:00,29.7,26.6,30.49,NW,312,0.0,0.0,88,0.00,,,0.00,meteohub,2013-04-21 04:02:00,
2013-04-21 00:07:00,29.7,26.8,30.49,NW,312,0.0,0.0,89,0.00,,,0.00,meteohub,2013-04-21 04:07:00,
2013-04-21 00:13:00,29.8,27.0,30.49,NW,312,0.0,1.0,89,0.00,,,0.00,meteohub,2013-04-21 04:13:00,
2013-04-21 00:18:00,29.8,27.0,30.49,NW,312,0.0,1.0,89,0.00,,,0.00,meteohub,2013-04-21 04:18:00,
2013-04-21 00:23:00,29.7,26.8,30.49,NW,312,0.0,1.0,89,0.00,,,0.00,meteohub,2013-04-21 04:23:00,
2013-04-21 00:28:00,29.7,26.8,30.50,NW,312,0.0,0.0,89,0.00,,,0.00,meteohub,2013-04-21 04:28:00,
2013-04-21 00:34:00,29.8,27.3,30.50,NW,312,0.0,0.0,90,0.00,,,0.00,meteohub,2013-04-21 04:34:00,
2013-04-21 00:39:00,29.8,27.0,30.50,NW,312,0.0,0.0,89,0.00,,,0.00,meteohub,2013-04-21 04:39:00,
2013-04-21 00:44:00,29.7,26.8,30.51,NW,312,0.0,0.0,89,0.00,,,0.00,meteohub,2013-04-21 04:44:00,
2013-04-21 00:50:00,29.7,26.8,30.51,NW,312,0.0,0.0,89,0.00,,,0.00,meteohub,2013-04-21 04:50:00,
2013-04-21 00:55:00,29.7,26.8,30.51,NW,312,0.0,0.0,89,0.00,,,0.00,meteohub,2013-04-21 04:55:00,
2013-04-21 01:00:00,29.8,27.0,30.51,NW,312,0.0,0.0,89,0.00,,,0.00,meteohub,2013-04-21 05:00:00,
2013-04-21 01:05:00,29.8,27.3,30.51,NW,312,0.0,0.0,90,0.00,,,0.00,meteohub,2013-04-21 05:05:00,
2013-04-21 01:11:00,30.0,27.5,30.51,NW,312,0.0,0.0,90,0.00,,,0.00,meteohub,2013-04-21 05:11:00,
2013-04-21 01:16:00,30.0,27.5,30.51,NW,312,0.0,0.0,90,0.00,,,0.00,meteohub,2013-04-21 05:16:00,
2013-04-21 01:21:00,30.2,27.9,30.51,NW,312,0.0,1.0,91,0.00,,,0.00,meteohub,2013-04-21 05:21:00,
2013-04-21 01:27:00,30.2,27.7,30.51,NW,312,0.0,1.0,90,0.00,,,0.00,meteohub,2013-04-21 05:27:00,
2013-04-21 01:32:00,30.0,27.5,30.52,NW,312,0.0,1.0,90,0.00,,,0.00,meteohub,2013-04-21 05:32:00,
2013-04-21 01:37:00,29.8,27.3,30.52,NW,312,0.0,0.0,90,0.00,,,0.00,meteohub,2013-04-21 05:37:00,
2013-04-21 01:42:00,29.8,27.3,30.52,NW,312,0.0,0.0,90,0.00,,,0.00,meteohub,2013-04-21 05:42:00,
2013-04-21 01:47:00,29.7,27.1,30.52,NW,312,0.0,0.0,90,0.00,,,0.00,meteohub,2013-04-21 05:47:00,
2013-04-21 01:52:00,29.7,27.1,30.53,NW,312,0.0,0.0,90,0.00,,,0.00,meteohub,2013-04-21 05:52:00,
2013-04-21 01:57:00,29.5,27.0,30.53,NW,312,0.0,0.0,90,0.00,,,0.00,meteohub,2013-04-21 05:57:00,
2013-04-21 02:02:00,29.5,27.0,30.53,NW,312,0.0,0.0,90,0.00,,,0.00,meteohub,2013-04-21 06:02:00,
2013-04-21 02:07:00,29.3,26.8,30.53,NW,312,0.0,0.0,90,0.00,,,0.00,meteohub,2013-04-21 06:07:00,
2013-04-21 02:12:00,29.3,27.0,30.53,NW,312,0.0,0.0,91,0.00,,,0.00,meteohub,2013-04-21 06:12:00,
2013-04-21 02:17:00,29.1,26.8,30.53,NW,312,0.0,0.0,91,0.00,,,0.00,meteohub,2013-04-21 06:17:00,
2013-04-21 02:22:00,29.1,26.8,30.53,NW,312,0.0,0.0,91,0.00,,,0.00,meteohub,2013-04-21 06:22:00,
2013-04-21 02:27:00,29.1,26.8,30.53,NW,312,0.0,0.0,91,0.00,,,0.00,meteohub,2013-04-21 06:27:00,
2013-04-21 02:32:00,29.1,27.1,30.54,NW,312,0.0,0.0,92,0.00,,,0.00,meteohub,2013-04-21 06:32:00,
2013-04-21 02:37:00,29.1,27.1,30.54,NW,312,0.0,0.0,92,0.00,,,0.00,meteohub,2013-04-21 06:37:00,
2013-04-21 02:42:00,28.9,27.0,30.54,NW,312,0.0,0.0,92,0.00,,,0.00,meteohub,2013-04-21 06:42:00,
2013-04-21 02:47:00,28.8,26.8,30.54,NW,312,0.0,0.0,92,0.00,,,0.00,meteohub,2013-04-21 06:47:00,
2013-04-21 02:52:00,28.8,26.8,30.54,NW,312,0.0,0.0,92,0.00,,,0.00,meteohub,2013-04-21 06:52:00,
2013-04-21 02:57:00,28.6,26.6,30.54,NW,312,0.0,0.0,92,0.00,,,0.00,meteohub,2013-04-21 06:57:00,
2013-04-21 03:02:00,28.6,26.6,30.54,NW,312,0.0,0.0,92,0.00,,,0.00,meteohub,2013-04-21 07:02:00,
2013-04-21 03:07:00,28.8,26.8,30.54,NW,312,0.0,0.0,92,0.00,,,0.00,meteohub,2013-04-21 07:07:00,
2013-04-21 03:12:00,28.6,26.6,30.54,NW,312,0.0,0.0,92,0.00,,,0.00,meteohub,2013-04-21 07:12:00,
2013-04-21 03:17:00,28.8,27.0,30.55,NW,312,0.0,0.0,93,0.00,,,0.00,meteohub,2013-04-21 07:17:00,
2013-04-21 03:22:00,28.8,27.0,30.55,NW,312,0.0,0.0,93,0.00,,,0.00,meteohub,2013-04-21 07:22:00,
2013-04-21 03:27:00,28.6,26.8,30.55,NW,312,0.0,0.0,93,0.00,,,0.00,meteohub,2013-04-21 07:27:00,
2013-04-21 03:32:00,28.6,26.8,30.55,NW,312,0.0,0.0,93,0.00,,,0.00,meteohub,2013-04-21 07:32:00,
2013-04-21 03:37:00,28.2,26.4,30.55,NW,312,0.0,0.0,93,0.00,,,0.00,meteohub,2013-04-21 07:37:00,
2013-04-21 03:42:00,28.0,26.2,30.55,NW,312,0.0,0.0,93,0.00,,,0.00,meteohub,2013-04-21 07:42:00,
2013-04-21 03:47:00,27.9,26.1,30.55,NW,312,0.0,0.0,93,0.00,,,0.00,meteohub,2013-04-21 07:47:00,
2013-04-21 03:52:00,27.9,26.1,30.56,NW,312,0.0,0.0,93,0.00,,,0.00,meteohub,2013-04-21 07:52:00,
2013-04-21 03:57:00,27.7,25.9,30.56,NW,312,0.0,0.0,93,0.00,,,0.00,meteohub,2013-04-21 07:57:00,
2013-04-21 04:02:00,27.7,25.9,30.56,NW,312,0.0,0.0,93,0.00,,,0.00,meteohub,2013-04-21 08:02:00,
2013-04-21 04:07:00,27.7,25.9,30.56,NW,312,0.0,0.0,93,0.00,,,0.00,meteohub,2013-04-21 08:07:00,
2013-04-21 04:12:00,27.3,25.5,30.56,NW,312,0.0,0.0,93,0.00,,,0.00,meteohub,2013-04-21 08:12:00,
2013-04-21 04:17:00,27.3,25.5,30.56,NW,312,0.0,0.0,93,0.00,,,0.00,meteohub,2013-04-21 08:17:00,
2013-04-21 04:22:00,27.1,25.3,30.56,NW,312,0.0,0.0,93,0.00,,,0.00,meteohub,2013-04-21 08:22:00,
2013-04-21 04:27:00,27.1,25.3,30.56,NW,312,0.0,0.0,93,0.00,,,0.00,meteohub,2013-04-21 08:27:00,
2013-04-21 04:32:00,27.0,25.2,30.56,NW,312,0.0,0.0,93,0.00,,,0.00,meteohub,2013-04-21 08:32:00,
2013-04-21 04:37:00,27.0,25.2,30.57,NW,312,0.0,0.0,93,0.00,,,0.00,meteohub,2013-04-21 08:37:00,
2013-04-21 04:42:00,27.0,25.2,30.57,NW,312,0.0,0.0,93,0.00,,,0.00,meteohub,2013-04-21 08:42:00,
2013-04-21 04:47:00,27.0,25.5,30.57,NW,312,0.0,0.0,94,0.00,,,0.00,meteohub,2013-04-21 08:47:00,
2013-04-21 04:52:00,27.0,25.5,30.57,NW,312,0.0,0.0,94,0.00,,,0.00,meteohub,2013-04-21 08:52:00,
2013-04-21 04:57:00,27.0,25.5,30.58,NW,312,0.0,0.0,94,0.00,,,0.00,meteohub,2013-04-21 08:57:00,
2013-04-21 05:02:00,26.8,25.3,30.58,NW,312,0.0,0.0,94,0.00,,,0.00,meteohub,2013-04-21 09:02:00,
2013-04-21 05:07:00,26.8,25.3,30.58,NW,312,0.0,0.0,94,0.00,,,0.00,meteohub,2013-04-21 09:07:00,
2013-04-21 05:12:00,26.8,25.3,30.58,NW,312,0.0,0.0,94,0.00,,,0.00,meteohub,2013-04-21 09:12:00,
2013-04-21 05:17:00,26.6,25.2,30.58,NW,312,0.0,0.0,94,0.00,,,0.00,meteohub,2013-04-21 09:17:00,
2013-04-21 05:22:00,26.4,25.0,30.59,NW,312,0.0,0.0,94,0.00,,,0.00,meteohub,2013-04-21 09:22:00,
2013-04-21 05:27:00,26.4,25.0,30.59,NW,312,0.0,0.0,94,0.00,,,0.00,meteohub,2013-04-21 09:27:00,
2013-04-21 05:32:00,26.4,25.0,30.59,NW,312,0.0,0.0,94,0.00,,,0.00,meteohub,2013-04-21 09:32:00,
2013-04-21 05:37:00,26.4,25.0,30.59,NW,312,0.0,0.0,94,0.00,,,0.00,meteohub,2013-04-21 09:37:00,
2013-04-21 05:42:00,26.4,25.0,30.59,NW,312,0.0,0.0,94,0.00,,,0.00,meteohub,2013-04-21 09:42:00,
2013-04-21 05:47:00,26.2,24.8,30.59,NW,312,0.0,0.0,94,0.00,,,0.00,meteohub,2013-04-21 09:47:00,
2013-04-21 05:53:00,26.2,24.8,30.60,NW,312,0.0,0.0,94,0.00,,,0.00,meteohub,2013-04-21 09:53:00,
2013-04-21 05:58:00,26.2,24.8,30.60,NW,312,0.0,0.0,94,0.00,,,0.00,meteohub,2013-04-21 09:58:00,
2013-04-21 06:03:00,26.2,24.8,30.60,NW,312,0.0,0.0,94,0.00,,,0.00,meteohub,2013-04-21 10:03:00,
2013-04-21 06:09:00,26.2,24.8,30.60,NW,312,0.0,0.0,94,0.00,,,0.00,meteohub,2013-04-21 10:09:00,
2013-04-21 06:14:00,26.2,24.8,30.61,NW,312,0.0,0.0,94,0.00,,,0.00,meteohub,2013-04-21 10:14:00,
2013-04-21 06:19:00,26.1,24.6,30.61,NW,312,0.0,0.0,94,0.00,,,0.00,meteohub,2013-04-21 10:19:00,
2013-04-21 06:24:00,25.9,24.4,30.61,NW,312,0.0,0.0,94,0.00,,,0.00,meteohub,2013-04-21 10:24:00,
2013-04-21 06:30:00,25.7,24.3,30.61,NW,312,0.0,0.0,94,0.00,,,0.00,meteohub,2013-04-21 10:30:00,
2013-04-21 06:35:00,25.5,24.1,30.62,NW,312,0.0,0.0,94,0.00,,,0.00,meteohub,2013-04-21 10:35:00,
2013-04-21 06:40:00,25.5,24.1,30.62,NW,312,0.0,0.0,94,0.00,,,0.00,meteohub,2013-04-21 10:40:00,
2013-04-21 06:46:00,25.5,24.1,30.62,NW,312,0.0,0.0,94,0.00,,,0.00,meteohub,2013-04-21 10:46:00,
2013-04-21 06:51:00,25.3,23.9,30.63,NW,312,0.0,0.0,94,0.00,,,0.00,meteohub,2013-04-21 10:51:00,
2013-04-21 06:56:00,25.5,24.1,30.63,NW,312,0.0,0.0,94,0.00,,,0.00,meteohub,2013-04-21 10:56:00,
2013-04-21 07:01:00,25.7,24.3,30.64,NW,312,0.0,0.0,94,0.00,,,0.00,meteohub,2013-04-21 11:01:00,
2013-04-21 07:07:00,25.7,24.3,30.64,NW,312,0.0,0.0,94,0.00,,,0.00,meteohub,2013-04-21 11:07:00,
2013-04-21 07:12:00,26.1,24.8,30.64,NW,312,0.0,0.0,95,0.00,,,0.00,meteohub,2013-04-21 11:12:00,
2013-04-21 07:17:00,26.4,25.2,30.65,NW,312,0.0,0.0,95,0.00,,,0.00,meteohub,2013-04-21 11:17:00,
2013-04-21 07:22:00,27.0,25.7,30.65,NW,312,0.0,0.0,95,0.00,,,0.00,meteohub,2013-04-21 11:22:00,
2013-04-21 07:27:00,27.9,26.6,30.65,NW,312,0.0,0.0,95,0.00,,,0.00,meteohub,2013-04-21 11:27:00,
2013-04-21 07:32:00,28.6,27.3,30.66,NW,312,0.0,0.0,95,0.00,,,0.00,meteohub,2013-04-21 11:32:00,
2013-04-21 07:37:00,29.1,27.9,30.66,NW,312,0.0,0.0,95,0.00,,,0.00,meteohub,2013-04-21 11:37:00,
2013-04-21 07:42:00,29.7,28.2,30.66,NW,312,0.0,0.0,94,0.00,,,0.00,meteohub,2013-04-21 11:42:00,
2013-04-21 07:47:00,30.2,28.8,30.66,NW,312,0.0,0.0,94,0.00,,,0.00,meteohub,2013-04-21 11:47:00,
2013-04-21 07:52:00,30.9,29.1,30.67,NW,312,0.0,0.0,93,0.00,,,0.00,meteohub,2013-04-21 11:52:00,
2013-04-21 07:57:00,31.5,29.5,30.67,NW,312,0.0,0.0,92,0.00,,,0.00,meteohub,2013-04-21 11:57:00,
2013-04-21 08:02:00,32.4,30.4,30.67,NW,312,0.0,0.0,92,0.00,,,0.00,meteohub,2013-04-21 12:02:00,
2013-04-21 08:07:00,33.1,30.2,30.67,NW,312,0.0,1.0,89,0.00,,,0.00,meteohub,2013-04-21 12:07:00,
2013-04-21 08:12:00,33.8,30.4,30.68,NW,312,0.0,1.0,87,0.00,,,0.00,meteohub,2013-04-21 12:12:00,
2013-04-21 08:17:00,34.2,29.5,30.68,NW,312,0.0,1.0,83,0.00,,,0.00,meteohub,2013-04-21 12:17:00,
2013-04-21 08:22:00,34.7,29.5,30.68,NW,312,0.0,1.0,81,0.00,,,0.00,meteohub,2013-04-21 12:22:00,
2013-04-21 08:27:00,35.2,29.1,30.68,ENE,74,2.0,2.0,78,0.00,,,0.00,meteohub,2013-04-21 12:27:00,
2013-04-21 08:32:00,34.7,27.7,30.68,East,86,2.0,5.0,75,0.00,,,0.00,meteohub,2013-04-21 12:32:00,
2013-04-21 08:37:00,34.5,27.7,30.68,ESE,119,4.0,5.0,76,0.00,,,0.00,meteohub,2013-04-21 12:37:00,
2013-04-21 08:42:00,34.7,27.9,30.68,ENE,76,2.0,5.0,76,0.00,,,0.00,meteohub,2013-04-21 12:42:00,
2013-04-21 08:47:00,34.9,26.8,30.68,ESE,106,5.0,5.0,72,0.00,,,0.00,meteohub,2013-04-21 12:47:00,
2013-04-21 08:52:00,34.9,26.8,30.69,ESE,105,2.0,7.0,72,0.00,,,0.00,meteohub,2013-04-21 12:52:00,
2013-04-21 08:57:00,35.4,27.0,30.69,SSE,148,4.0,7.0,71,0.00,,,0.00,meteohub,2013-04-21 12:57:00,
2013-04-21 09:02:00,35.6,26.4,30.69,SSE,153,5.0,7.0,69,0.00,,,0.00,meteohub,2013-04-21 13:02:00,
2013-04-21 09:07:00,35.8,26.6,30.69,ESE,109,0.0,7.0,69,0.00,,,0.00,meteohub,2013-04-21 13:07:00,
2013-04-21 09:12:00,36.1,26.6,30.69,East,101,5.0,7.0,68,0.00,,,0.00,meteohub,2013-04-21 13:12:00,
2013-04-21 09:17:00,35.6,25.7,30.69,East,84,2.0,7.0,67,0.00,,,0.00,meteohub,2013-04-21 13:17:00,
2013-04-21 09:22:00,35.6,26.1,30.69,SE,131,6.0,7.0,68,0.00,,,0.00,meteohub,2013-04-21 13:22:00,
2013-04-21 09:27:00,35.4,25.2,30.69,ESE,119,0.0,8.0,66,0.00,,,0.00,meteohub,2013-04-21 13:27:00,
2013-04-21 09:32:00,35.2,25.3,30.69,SSE,158,1.0,8.0,67,0.00,,,0.00,meteohub,2013-04-21 13:32:00,
2013-04-21 09:37:00,35.4,24.8,30.69,ENE,78,4.0,8.0,65,0.00,,,0.00,meteohub,2013-04-21 13:37:00,
2013-04-21 09:42:00,34.9,23.9,30.69,East,94,0.0,8.0,64,0.00,,,0.00,meteohub,2013-04-21 13:42:00,
2013-04-21 09:47:00,34.9,24.3,30.69,NE,56,1.0,8.0,65,0.00,,,0.00,meteohub,2013-04-21 13:47:00,
2013-04-21 09:52:00,35.2,25.3,30.69,ENE,76,6.0,8.0,67,0.00,,,0.00,meteohub,2013-04-21 13:52:00,
2013-04-21 09:57:00,36.0,25.0,30.69,East,90,5.0,8.0,64,0.00,,,0.00,meteohub,2013-04-21 13:57:00,
2013-04-21 10:02:00,36.0,25.3,30.69,East,100,5.0,9.0,65,0.00,,,0.00,meteohub,2013-04-21 14:02:00,
2013-04-21 10:07:00,36.0,25.3,30.70,ESE,107,2.0,9.0,65,0.00,,,0.00,meteohub,2013-04-21 14:07:00,
2013-04-21 10:12:00,35.8,24.4,30.70,East,92,2.0,9.0,63,0.00,,,0.00,meteohub,2013-04-21 14:12:00,
2013-04-21 10:17:00,35.8,25.2,30.70,ENE,67,0.0,6.0,65,0.00,,,0.00,meteohub,2013-04-21 14:17:00,
2013-04-21 10:22:00,36.9,26.6,30.70,ESE,119,2.0,6.0,66,0.00,,,0.00,meteohub,2013-04-21 14:22:00,
2013-04-21 10:27:00,37.0,25.7,30.70,ENE,71,5.0,6.0,63,0.00,,,0.00,meteohub,2013-04-21 14:27:00,
2013-04-21 10:32:00,37.0,24.8,30.70,East,96,5.0,12.0,61,0.00,,,0.00,meteohub,2013-04-21 14:32:00,
2013-04-21 10:37:00,36.9,24.6,30.70,NNW,341,1.0,12.0,61,0.00,,,0.00,meteohub,2013-04-21 14:37:00,
2013-04-21 10:42:00,37.0,24.8,30.70,East,82,3.0,12.0,61,0.00,,,0.00,meteohub,2013-04-21 14:42:00,
2013-04-21 10:47:00,36.9,23.9,30.70,East,86,3.0,6.0,59,0.00,,,0.00,meteohub,2013-04-21 14:47:00,
2013-04-21 10:52:00,36.9,23.9,30.70,SSE,161,1.0,10.0,59,0.00,,,0.00,meteohub,2013-04-21 14:52:00,
2013-04-21 10:57:00,37.0,23.7,30.70,ENE,68,0.0,10.0,58,0.00,,,0.00,meteohub,2013-04-21 14:57:00,
2013-04-21 11:02:00,37.8,23.9,30.70,NNE,29,0.0,9.0,57,0.00,,,0.00,meteohub,2013-04-21 15:02:00,
2013-04-21 11:07:00,38.1,25.5,30.70,SE,124,1.0,9.0,60,0.00,,,0.00,meteohub,2013-04-21 15:07:00,
2013-04-21 11:12:00,38.3,24.4,30.70,NE,46,3.0,11.0,57,0.00,,,0.00,meteohub,2013-04-21 15:12:00,
2013-04-21 11:17:00,37.9,24.1,30.70,ESE,116,1.0,11.0,57,0.00,,,0.00,meteohub,2013-04-21 15:17:00,
2013-04-21 11:22:00,38.1,25.0,30.69,WSW,241,2.0,11.0,59,0.00,,,0.00,meteohub,2013-04-21 15:22:00,
2013-04-21 11:27:00,38.8,25.0,30.69,SSW,212,0.0,11.0,57,0.00,,,0.00,meteohub,2013-04-21 15:27:00,
2013-04-21 11:32:00,38.8,24.1,30.69,NNW,342,2.0,11.0,55,0.00,,,0.00,meteohub,2013-04-21 15:32:00,
2013-04-21 11:37:00,39.2,24.8,30.69,East,94,7.0,11.0,56,0.00,,,0.00,meteohub,2013-04-21 15:37:00,
2013-04-21 11:42:00,39.2,24.4,30.69,NE,36,3.0,11.0,55,0.00,,,0.00,meteohub,2013-04-21 15:42:00,
2013-04-21 11:48:00,38.7,23.4,30.69,East,82,3.0,10.0,54,0.00,,,0.00,meteohub,2013-04-21 15:48:00,
2013-04-21 11:53:00,38.8,25.0,30.69,SSE,153,0.0,11.0,57,0.00,,,0.00,meteohub,2013-04-21 15:53:00,
2013-04-21 11:58:00,39.0,24.6,30.69,SE,136,2.0,11.0,56,0.00,,,0.00,meteohub,2013-04-21 15:58:00,
2013-04-21 12:03:00,39.6,24.3,30.69,East,98,5.0,9.0,54,0.00,,,0.00,meteohub,2013-04-21 16:03:00,
2013-04-21 12:09:00,39.6,23.9,30.69,South,185,1.0,11.0,53,0.00,,,0.00,meteohub,2013-04-21 16:09:00,
2013-04-21 12:14:00,39.7,25.0,30.69,East,92,4.0,11.0,55,0.00,,,0.00,meteohub,2013-04-21 16:14:00,
2013-04-21 12:19:00,39.9,24.3,30.68,ENE,61,3.0,11.0,53,0.00,,,0.00,meteohub,2013-04-21 16:19:00,
2013-04-21 12:25:00,40.5,25.5,30.68,ENE,68,5.0,9.0,55,0.00,,,0.00,meteohub,2013-04-21 16:25:00,
2013-04-21 12:30:00,40.6,24.4,30.68,East,80,1.0,9.0,52,0.00,,,0.00,meteohub,2013-04-21 16:30:00,
2013-04-21 12:35:00,40.1,24.3,30.68,NE,38,1.0,9.0,53,0.00,,,0.00,meteohub,2013-04-21 16:35:00,
2013-04-21 12:40:00,40.5,25.2,30.68,ENE,58,4.0,12.0,54,0.00,,,0.00,meteohub,2013-04-21 16:40:00,
2013-04-21 12:46:00,40.6,24.4,30.67,NNE,32,4.0,12.0,52,0.00,,,0.00,meteohub,2013-04-21 16:46:00,
2013-04-21 12:51:00,41.2,25.9,30.67,ENE,60,3.0,12.0,54,0.00,,,0.00,meteohub,2013-04-21 16:51:00,
2013-04-21 12:56:00,41.2,24.8,30.67,NE,56,3.0,8.0,52,0.00,,,0.00,meteohub,2013-04-21 16:56:00,
2013-04-21 13:02:00,41.0,24.3,30.67,ENE,73,2.0,8.0,51,0.00,,,0.00,meteohub,2013-04-21 17:02:00,
2013-04-21 13:07:00,41.0,24.8,30.66,SE,142,0.0,8.0,52,0.00,,,0.00,meteohub,2013-04-21 17:07:00,
2013-04-21 13:12:00,41.5,26.6,30.66,ENE,71,6.0,7.0,55,0.00,,,0.00,meteohub,2013-04-21 17:12:00,
2013-04-21 13:17:00,41.7,23.9,30.66,ENE,76,7.0,11.0,49,0.00,,,0.00,meteohub,2013-04-21 17:17:00,
2013-04-21 13:22:00,42.1,24.8,30.66,SE,128,2.0,12.0,50,0.00,,,0.00,meteohub,2013-04-21 17:22:00,
2013-04-21 13:27:00,42.3,25.3,30.66,NNE,22,3.0,12.0,51,0.00,,,0.00,meteohub,2013-04-21 17:27:00,
2013-04-21 13:32:00,42.4,25.2,30.65,SE,133,7.0,10.0,50,0.00,,,0.00,meteohub,2013-04-21 17:32:00,
2013-04-21 13:37:00,42.6,24.8,30.65,ESE,121,7.0,11.0,49,0.00,,,0.00,meteohub,2013-04-21 17:37:00,
2013-04-21 13:42:00,42.4,24.6,30.65,NNW,333,2.0,11.0,49,0.00,,,0.00,meteohub,2013-04-21 17:42:00,
2013-04-21 13:47:00,42.6,25.3,30.65,NNE,31,7.0,11.0,50,0.00,,,0.00,meteohub,2013-04-21 17:47:00,
2013-04-21 13:52:00,42.8,25.0,30.65,ENE,61,2.0,12.0,49,0.00,,,0.00,meteohub,2013-04-21 17:52:00,
2013-04-21 13:57:00,43.0,25.2,30.65,ENE,58,3.0,12.0,49,0.00,,,0.00,meteohub,2013-04-21 17:57:00,
2013-04-21 14:02:00,43.0,24.6,30.64,NW,304,2.0,11.0,48,0.00,,,0.00,meteohub,2013-04-21 18:02:00,
2013-04-21 14:07:00,43.5,24.6,30.64,East,95,9.0,9.0,47,0.00,,,0.00,meteohub,2013-04-21 18:07:00,
2013-04-21 14:12:00,43.5,25.2,30.64,SSW,213,3.0,11.0,48,0.00,,,0.00,meteohub,2013-04-21 18:12:00,
2013-04-21 14:17:00,43.7,25.7,30.64,South,171,2.0,13.0,49,0.00,,,0.00,meteohub,2013-04-21 18:17:00,
2013-04-21 14:22:00,44.1,27.1,30.64,NE,45,3.0,13.0,51,0.00,,,0.00,meteohub,2013-04-21 18:22:00,
2013-04-21 14:28:00,44.2,27.3,30.64,East,101,8.0,13.0,51,0.00,,,0.00,meteohub,2013-04-21 18:28:00,
2013-04-21 14:33:00,43.9,27.9,30.63,ESE,102,8.0,12.0,53,0.00,,,0.00,meteohub,2013-04-21 18:33:00,
2013-04-21 14:38:00,43.5,29.7,30.63,NW,311,3.0,12.0,58,0.00,,,0.00,meteohub,2013-04-21 18:38:00,
2013-04-21 14:43:00,44.2,29.5,30.63,ENE,75,5.0,12.0,56,0.00,,,0.00,meteohub,2013-04-21 18:43:00,
2013-04-21 14:49:00,44.1,29.3,30.63,ENE,69,14.0,14.0,56,0.00,,,0.00,meteohub,2013-04-21 18:49:00,
2013-04-21 14:54:00,43.2,30.2,30.62,East,94,5.0,14.0,60,0.00,,,0.00,meteohub,2013-04-21 18:54:00,
2013-04-21 14:59:00,43.3,29.5,30.62,NNW,344,4.0,14.0,58,0.00,,,0.00,meteohub,2013-04-21 18:59:00,
2013-04-21 15:05:00,43.3,30.0,30.62,NNE,30,3.0,14.0,59,0.00,,,0.00,meteohub,2013-04-21 19:05:00,
2013-04-21 15:10:00,43.5,29.7,30.62,East,86,10.0,13.0,58,0.00,,,0.00,meteohub,2013-04-21 19:10:00,
2013-04-21 15:15:00,43.3,29.1,30.62,NE,45,10.0,14.0,57,0.00,,,0.00,meteohub,2013-04-21 19:15:00,
2013-04-21 15:20:00,43.0,29.7,30.62,NNE,26,2.0,15.0,59,0.00,,,0.00,meteohub,2013-04-21 19:20:00,
2013-04-21 15:26:00,43.3,30.0,30.62,ENE,66,12.0,15.0,59,0.00,,,0.00,meteohub,2013-04-21 19:26:00,
2013-04-21 15:31:00,43.2,29.3,30.61,ENE,63,4.0,12.0,58,0.00,,,0.00,meteohub,2013-04-21 19:31:00,
2013-04-21 15:36:00,42.6,28.9,30.61,NE,51,4.0,15.0,58,0.00,,,0.00,meteohub,2013-04-21 19:36:00,
2013-04-21 15:42:00,42.4,28.8,30.61,North,5,5.0,17.0,58,0.00,,,0.00,meteohub,2013-04-21 19:42:00,
2013-04-21 15:47:00,42.6,28.9,30.60,ENE,67,1.0,17.0,58,0.00,,,0.00,meteohub,2013-04-21 19:47:00,
2013-04-21 15:52:00,42.6,28.0,30.60,NNW,344,9.0,12.0,56,0.00,,,0.00,meteohub,2013-04-21 19:52:00,
2013-04-21 15:57:00,42.6,28.9,30.60,NNW,330,5.0,12.0,58,0.00,,,0.00,meteohub,2013-04-21 19:57:00,
2013-04-21 16:02:00,42.6,28.0,30.59,North,5,6.0,12.0,56,0.00,,,0.00,meteohub,2013-04-21 20:02:00,
2013-04-21 16:07:00,42.6,28.4,30.59,NW,326,1.0,12.0,57,0.00,,,0.00,meteohub,2013-04-21 20:07:00,
2013-04-21 16:12:00,42.8,28.6,30.59,NE,46,6.0,17.0,57,0.00,,,0.00,meteohub,2013-04-21 20:12:00,
2013-04-21 16:17:00,43.0,28.8,30.59,ENE,61,3.0,17.0,57,0.00,,,0.00,meteohub,2013-04-21 20:17:00,
2013-04-21 16:22:00,42.8,28.2,30.59,NE,34,6.0,17.0,56,0.00,,,0.00,meteohub,2013-04-21 20:22:00,
2013-04-21 16:27:00,42.8,28.6,30.58,ENE,61,3.0,12.0,57,0.00,,,0.00,meteohub,2013-04-21 20:27:00,
2013-04-21 16:32:00,43.2,28.9,30.58,North,10,3.0,12.0,57,0.00,,,0.00,meteohub,2013-04-21 20:32:00,
2013-04-21 16:37:00,43.3,29.1,30.58,North,9,4.0,12.0,57,0.00,,,0.00,meteohub,2013-04-21 20:37:00,
2013-04-21 16:43:00,43.5,28.9,30.58,ENE,78,8.0,10.0,56,0.00,,,0.00,meteohub,2013-04-21 20:43:00,
2013-04-21 16:48:00,43.0,27.9,30.58,NNE,24,5.0,14.0,55,0.00,,,0.00,meteohub,2013-04-21 20:48:00,
2013-04-21 16:53:00,42.6,28.4,30.58,NE,45,10.0,14.0,57,0.00,,,0.00,meteohub,2013-04-21 20:53:00,
2013-04-21 16:58:00,42.6,27.5,30.58,ENE,60,7.0,14.0,55,0.00,,,0.00,meteohub,2013-04-21 20:58:00,
2013-04-21 17:04:00,42.4,27.0,30.58,NE,40,11.0,13.0,54,0.00,,,0.00,meteohub,2013-04-21 21:04:00,
2013-04-21 17:09:00,42.3,27.7,30.58,ENE,63,5.0,13.0,56,0.00,,,0.00,meteohub,2013-04-21 21:09:00,
2013-04-21 17:14:00,42.1,27.1,30.58,ENE,63,13.0,13.0,55,0.00,,,0.00,meteohub,2013-04-21 21:14:00,
2013-04-21 17:20:00,42.1,27.5,30.58,North,355,0.0,13.0,56,0.00,,,0.00,meteohub,2013-04-21 21:20:00,
2013-04-21 17:25:00,42.1,27.5,30.58,East,90,5.0,13.0,56,0.00,,,0.00,meteohub,2013-04-21 21:25:00,
2013-04-21 17:30:00,42.1,27.1,30.58,ENE,74,7.0,13.0,55,0.00,,,0.00,meteohub,2013-04-21 21:30:00,
2013-04-21 17:35:00,42.1,26.6,30.58,ENE,74,6.0,13.0,54,0.00,,,0.00,meteohub,2013-04-21 21:35:00,
2013-04-21 17:41:00,41.7,27.1,30.58,NNE,23,2.0,13.0,56,-99.99,,,0.00,meteohub,2013-04-21 21:41:00,
2013-04-21 17:46:00,42.1,27.5,30.58,NNE,15,5.0,13.0,56,0.00,,,0.00,meteohub,2013-04-21 21:46:00,
2013-04-21 17:51:00,42.1,27.9,30.58,ENE,65,7.0,13.0,57,0.00,,,0.00,meteohub,2013-04-21 21:51:00,
2013-04-21 17:57:00,41.7,25.9,30.58,ENE,67,6.0,11.0,53,0.00,,,0.00,meteohub,2013-04-21 21:57:00,
2013-04-21 18:02:00,41.5,26.6,30.58,NNE,12,6.0,12.0,55,0.00,,,0.00,meteohub,2013-04-21 22:02:00,
2013-04-21 18:07:00,41.5,26.6,30.58,ENE,65,5.0,12.0,55,0.00,,,0.00,meteohub,2013-04-21 22:07:00,
2013-04-21 18:12:00,41.7,26.8,30.58,NNW,336,6.0,12.0,55,0.00,,,0.00,meteohub,2013-04-21 22:12:00,
2013-04-21 18:17:00,41.7,26.8,30.58,NNW,342,3.0,12.0,55,0.00,,,0.00,meteohub,2013-04-21 22:17:00,
2013-04-21 18:22:00,41.7,26.8,30.58,ENE,57,8.0,12.0,55,0.00,,,0.00,meteohub,2013-04-21 22:22:00,
2013-04-21 18:27:00,41.7,27.1,30.58,NNW,343,5.0,10.0,56,0.00,,,0.00,meteohub,2013-04-21 22:27:00,
2013-04-21 18:32:00,41.7,26.8,30.58,NNE,24,2.0,10.0,55,0.00,,,0.00,meteohub,2013-04-21 22:32:00,
2013-04-21 18:37:00,41.5,26.6,30.58,NE,55,11.0,11.0,55,0.00,,,0.00,meteohub,2013-04-21 22:37:00,
2013-04-21 18:42:00,41.5,26.6,30.58,East,99,7.0,11.0,55,0.00,,,0.00,meteohub,2013-04-21 22:42:00,
2013-04-21 18:47:00,41.4,26.8,30.58,NNE,18,2.0,11.0,56,0.00,,,0.00,meteohub,2013-04-21 22:47:00,
2013-04-21 18:52:00,41.5,27.0,30.58,ENE,59,4.0,11.0,56,0.00,,,0.00,meteohub,2013-04-21 22:52:00,
2013-04-21 18:57:00,41.4,25.9,30.58,NE,45,4.0,10.0,54,0.00,,,0.00,meteohub,2013-04-21 22:57:00,
2013-04-21 19:02:00,41.2,26.2,30.58,NE,36,6.0,10.0,55,0.00,,,0.00,meteohub,2013-04-21 23:02:00,
2013-04-21 19:07:00,41.2,26.2,30.58,ENE,67,7.0,10.0,55,0.00,,,0.00,meteohub,2013-04-21 23:07:00,
2013-04-21 19:12:00,41.2,26.2,30.57,NE,40,3.0,10.0,55,0.00,,,0.00,meteohub,2013-04-21 23:12:00,
2013-04-21 19:17:00,41.0,26.4,30.57,NE,44,5.0,10.0,56,0.00,,,0.00,meteohub,2013-04-21 23:17:00,
2013-04-21 19:22:00,40.8,25.9,30.58,NNE,20,3.0,10.0,55,0.00,,,0.00,meteohub,2013-04-21 23:22:00,
2013-04-21 19:27:00,40.8,26.4,30.57,NNE,13,5.0,8.0,56,0.00,,,0.00,meteohub,2013-04-21 23:27:00,
2013-04-21 19:32:00,40.6,26.6,30.58,ENE,62,1.0,6.0,57,0.00,,,0.00,meteohub,2013-04-21 23:32:00,
2013-04-21 19:37:00,40.5,26.4,30.58,NE,42,4.0,6.0,57,0.00,,,0.00,meteohub,2013-04-21 23:37:00,
2013-04-21 19:42:00,40.3,26.6,30.58,NNE,26,4.0,7.0,58,0.00,,,0.00,meteohub,2013-04-21 23:42:00,
2013-04-21 19:47:00,40.3,27.1,30.58,NNW,339,0.0,7.0,59,0.00,,,0.00,meteohub,2013-04-21 23:47:00,
2013-04-21 19:52:00,39.9,26.4,30.58,NNE,12,2.0,7.0,58,0.00,,,0.00,meteohub,2013-04-21 23:52:00,
2013-04-21 19:57:00,39.7,27.0,30.58,North,5,0.0,8.0,60,0.00,,,0.00,meteohub,2013-04-21 23:57:00,
2013-04-21 20:02:00,39.6,26.8,30.58,North,355,2.0,8.0,60,0.00,,,0.00,meteohub,2013-04-22 00:02:00,
2013-04-21 20:07:00,39.4,26.6,30.58,North,0,0.0,6.0,60,0.00,,,0.00,meteohub,2013-04-22 00:07:00,
2013-04-21 20:12:00,39.4,27.1,30.58,NNE,17,0.0,5.0,61,0.00,,,0.00,meteohub,2013-04-22 00:12:00,
2013-04-21 20:17:00,39.0,26.8,30.58,NNW,347,1.0,5.0,61,0.00,,,0.00,meteohub,2013-04-22 00:17:00,
2013-04-21 20:22:00,39.0,26.8,30.58,NNW,348,0.0,5.0,61,0.00,,,0.00,meteohub,2013-04-22 00:22:00,
2013-04-21 20:27:00,38.8,27.0,30.58,NE,37,3.0,7.0,62,0.00,,,0.00,meteohub,2013-04-22 00:27:00,
2013-04-21 20:32:00,38.7,26.8,30.58,NNE,30,2.0,7.0,62,0.00,,,0.00,meteohub,2013-04-22 00:32:00,
2013-04-21 20:37:00,38.5,26.6,30.58,NNE,29,0.0,7.0,62,0.00,,,0.00,meteohub,2013-04-22 00:37:00,
2013-04-21 20:42:00,38.3,26.8,30.58,NNE,31,0.0,5.0,63,0.00,,,0.00,meteohub,2013-04-22 00:42:00,
2013-04-21 20:47:00,38.1,26.6,30.58,NNE,15,0.0,4.0,63,0.00,,,0.00,meteohub,2013-04-22 00:47:00,
2013-04-21 20:52:00,37.9,26.4,30.58,NNE,20,0.0,4.0,63,0.00,,,0.00,meteohub,2013-04-22 00:52:00,
2013-04-21 20:57:00,37.8,26.6,30.58,North,5,3.0,4.0,64,0.00,,,0.00,meteohub,2013-04-22 00:57:00,
2013-04-21 21:02:00,37.8,26.6,30.58,North,5,0.0,4.0,64,0.00,,,0.00,meteohub,2013-04-22 01:02:00,
2013-04-21 21:07:00,37.6,26.6,30.58,North,5,0.0,4.0,64,0.00,,,0.00,meteohub,2013-04-22 01:07:00,
2013-04-21 21:12:00,37.4,26.4,30.58,North,5,0.0,3.0,64,0.00,,,0.00,meteohub,2013-04-22 01:12:00,
2013-04-21 21:17:00,37.2,26.6,30.58,North,5,0.0,2.0,65,0.00,,,0.00,meteohub,2013-04-22 01:17:00,
2013-04-21 21:22:00,37.0,26.4,30.58,North,5,0.0,1.0,65,0.00,,,0.00,meteohub,2013-04-22 01:22:00,
2013-04-21 21:27:00,37.0,26.8,30.58,North,5,0.0,2.0,66,0.00,,,0.00,meteohub,2013-04-22 01:27:00,
2013-04-21 21:32:00,36.9,27.0,30.58,North,5,0.0,2.0,67,0.00,,,0.00,meteohub,2013-04-22 01:32:00,
2013-04-21 21:37:00,36.7,27.1,30.58,North,5,0.0,0.0,68,0.00,,,0.00,meteohub,2013-04-22 01:37:00,
2013-04-21 21:42:00,36.7,27.1,30.58,North,5,0.0,0.0,68,0.00,,,0.00,meteohub,2013-04-22 01:42:00,
2013-04-21 21:47:00,36.5,27.3,30.58,North,5,0.0,0.0,69,0.00,,,0.00,meteohub,2013-04-22 01:47:00,
2013-04-21 21:52:00,36.3,27.1,30.58,North,5,0.0,0.0,69,0.00,,,0.00,meteohub,2013-04-22 01:52:00,
2013-04-21 21:57:00,36.1,27.0,30.58,North,5,0.0,0.0,69,0.00,,,0.00,meteohub,2013-04-22 01:57:00,
2013-04-21 22:02:00,36.1,26.6,30.58,North,5,0.0,0.0,68,0.00,,,0.00,meteohub,2013-04-22 02:02:00,
2013-04-21 22:07:00,36.0,26.4,30.58,North,5,0.0,0.0,68,0.00,,,0.00,meteohub,2013-04-22 02:07:00,
2013-04-21 22:12:00,35.8,26.6,30.58,North,5,0.0,0.0,69,0.00,,,0.00,meteohub,2013-04-22 02:12:00,
2013-04-21 22:17:00,35.8,27.7,30.58,North,5,0.0,0.0,72,0.00,,,0.00,meteohub,2013-04-22 02:17:00,
2013-04-21 22:22:00,35.4,27.7,30.58,North,5,0.0,0.0,73,0.00,,,0.00,meteohub,2013-04-22 02:22:00,
2013-04-21 22:27:00,35.2,27.1,30.58,North,5,0.0,0.0,72,0.00,,,0.00,meteohub,2013-04-22 02:27:00,
2013-04-21 22:32:00,35.1,27.3,30.58,North,5,0.0,0.0,73,0.00,,,0.00,meteohub,2013-04-22 02:32:00,
2013-04-21 22:37:00,35.1,27.9,30.58,North,5,0.0,0.0,75,0.00,,,0.00,meteohub,2013-04-22 02:37:00,
2013-04-21 22:42:00,34.9,28.0,30.57,North,5,0.0,0.0,76,0.00,,,0.00,meteohub,2013-04-22 02:42:00,
2013-04-21 22:47:00,34.5,28.0,30.57,North,5,0.0,0.0,77,0.00,,,0.00,meteohub,2013-04-22 02:47:00,
2013-04-21 22:52:00,34.3,27.9,30.57,North,5,0.0,0.0,77,0.00,,,0.00,meteohub,2013-04-22 02:52:00,
2013-04-21 22:57:00,34.2,27.7,30.57,North,5,0.0,0.0,77,0.00,,,0.00,meteohub,2013-04-22 02:57:00,
2013-04-21 23:02:00,34.2,27.7,30.57,North,5,0.0,0.0,77,0.00,,,0.00,meteohub,2013-04-22 03:02:00,
2013-04-21 23:07:00,34.0,27.9,30.57,North,5,0.0,0.0,78,0.00,,,0.00,meteohub,2013-04-22 03:07:00,
2013-04-21 23:12:00,33.8,27.7,30.56,North,5,0.0,0.0,78,0.00,,,0.00,meteohub,2013-04-22 03:12:00,
2013-04-21 23:17:00,33.6,27.9,30.56,North,5,0.0,0.0,79,0.00,,,0.00,meteohub,2013-04-22 03:17:00,
2013-04-21 23:22:00,33.6,27.9,30.56,North,5,0.0,0.0,79,0.00,,,0.00,meteohub,2013-04-22 03:22:00,
2013-04-21 23:27:00,33.4,27.9,30.56,North,5,0.0,0.0,80,0.00,,,0.00,meteohub,2013-04-22 03:27:00,
2013-04-21 23:32:00,33.4,27.9,30.56,North,5,0.0,0.0,80,0.00,,,0.00,meteohub,2013-04-22 03:32:00,
2013-04-21 23:37:00,33.3,27.7,30.56,North,5,0.0,0.0,80,0.00,,,0.00,meteohub,2013-04-22 03:37:00,
2013-04-21 23:42:00,33.3,27.7,30.56,North,5,0.0,0.0,80,0.00,,,0.00,meteohub,2013-04-22 03:42:00,
2013-04-21 23:47:00,33.1,27.9,30.56,North,5,0.0,0.0,81,0.00,,,0.00,meteohub,2013-04-22 03:47:00,
2013-04-21 23:52:00,33.1,28.2,30.56,North,5,0.0,0.0,82,0.00,,,0.00,meteohub,2013-04-22 03:52:00,
2013-04-21 23:57:00,33.1,28.2,30.56,North,5,0.0,0.0,82,0.00,,,0.00,meteohub,2013-04-22 03:57:00,